createdAt,value
2022-12-24T00:01:50.247Z,90.94
2022-12-24T00:04:19.455Z,91.11
2022-12-24T00:06:48.924Z,91.43
2022-12-24T00:09:18.195Z,91.22
2022-12-24T00:11:47.683Z,91.62
2022-12-24T00:14:16.894Z,91.85
2022-12-24T00:16:46.685Z,92.01
2022-12-24T00:19:16.313Z,92.16
2022-12-24T00:21:45.651Z,92.42
2022-12-24T00:24:15.001Z,92.50
2022-12-24T00:26:44.537Z,92.45
2022-12-24T00:29:14.366Z,92.08
2022-12-24T00:31:43.620Z,91.89
2022-12-24T00:34:12.843Z,91.53
2022-12-24T00:36:42.071Z,91.07
2022-12-24T00:39:11.259Z,91.09
2022-12-24T00:41:41.012Z,90.98
2022-12-24T00:44:10.578Z,91.04
2022-12-24T00:46:41.736Z,90.76
2022-12-24T00:49:13.178Z,90.54
2022-12-24T00:51:43.060Z,90.42
2022-12-24T00:54:12.328Z,90.62
2022-12-24T00:56:41.896Z,90.81
2022-12-24T00:59:11.136Z,90.63
2022-12-24T01:01:40.824Z,90.37
2022-12-24T01:04:28.095Z,90.50
2022-12-24T01:06:57.663Z,90.71
2022-12-24T01:09:26.904Z,90.82
2022-12-24T01:11:56.121Z,90.87
2022-12-24T01:14:25.425Z,91.05
2022-12-24T01:16:54.972Z,91.01
2022-12-24T01:19:24.264Z,91.15
2022-12-24T01:21:54.112Z,90.99
2022-12-24T01:24:23.325Z,90.19
2022-12-24T01:26:52.885Z,90.38
2022-12-24T01:29:22.175Z,90.64
2022-12-24T01:31:51.718Z,90.43
2022-12-24T01:34:20.955Z,90.62
2022-12-24T01:36:50.155Z,90.79
2022-12-24T01:39:19.449Z,90.63
2022-12-24T01:42:06.928Z,90.70
2022-12-24T01:44:39.096Z,90.75
2022-12-24T01:47:23.622Z,90.72
2022-12-24T01:49:55.339Z,90.78
2022-12-24T01:52:27.860Z,91.27
2022-12-24T01:54:58.322Z,91.22
2022-12-24T01:57:31.008Z,91.51
2022-12-24T02:00:03.219Z,91.63
2022-12-24T02:02:34.176Z,91.56
2022-12-24T02:05:12.302Z,91.56
2022-12-24T02:07:43.057Z,91.68
2022-12-24T02:10:14.831Z,91.67
2022-12-24T02:12:45.332Z,91.71
2022-12-24T02:15:16.205Z,91.81
2022-12-24T02:17:48.600Z,91.54
2022-12-24T02:20:37.349Z,91.83
2022-12-24T02:23:26.589Z,91.82
2022-12-24T02:26:18.441Z,92.08
2022-12-24T02:29:12.521Z,92.16
2022-12-24T02:31:50.625Z,91.78
2022-12-24T02:34:26.120Z,92.19
2022-12-24T02:37:00.964Z,92.09
2022-12-24T02:39:42.272Z,91.89
2022-12-24T02:42:13.084Z,92.28
2022-12-24T02:44:55.927Z,92.57
2022-12-24T02:47:25.284Z,92.15
2022-12-24T02:49:54.872Z,92.24
2022-12-24T02:52:36.334Z,92.13
2022-12-24T02:55:12.081Z,92.37
2022-12-24T02:57:56.435Z,92.57
2022-12-24T03:00:26.071Z,92.45
2022-12-24T03:03:22.333Z,92.43
2022-12-24T03:05:57.539Z,92.40
2022-12-24T03:08:36.035Z,92.46
2022-12-24T03:11:08.610Z,92.23
2022-12-24T03:13:37.305Z,91.97
2022-12-24T03:16:09.926Z,91.96
2022-12-24T03:18:41.891Z,91.74
2022-12-24T03:21:32.034Z,91.56
2022-12-24T03:24:01.823Z,91.24
2022-12-24T03:26:33.397Z,91.11
2022-12-24T03:29:07.721Z,91.00
2022-12-24T03:31:49.326Z,90.65
2022-12-24T03:34:19.913Z,90.49
2022-12-24T03:36:49.851Z,90.51
2022-12-24T03:39:19.134Z,90.52
2022-12-24T03:41:49.219Z,90.48
2022-12-24T03:44:18.456Z,90.64
2022-12-24T03:46:48.162Z,90.59
2022-12-24T03:49:17.434Z,90.48
2022-12-24T03:51:47.156Z,90.17
2022-12-24T03:54:16.445Z,90.41
2022-12-24T03:56:45.681Z,90.37
2022-12-24T03:59:14.921Z,90.31
2022-12-24T04:01:44.561Z,90.24
2022-12-24T04:04:14.037Z,90.55
2022-12-24T04:06:43.872Z,90.77
2022-12-24T04:09:13.148Z,90.95
2022-12-24T04:11:42.593Z,90.84
2022-12-24T04:14:11.848Z,90.85
2022-12-24T04:16:41.115Z,90.45
2022-12-24T04:19:10.449Z,90.55
2022-12-24T04:21:39.923Z,90.51
2022-12-24T04:24:09.352Z,90.46
2022-12-24T04:26:38.564Z,90.21
2022-12-24T04:29:08.257Z,90.11
2022-12-24T04:31:37.853Z,90.07
2022-12-24T04:34:07.063Z,90.39
2022-12-24T04:36:36.927Z,90.42
2022-12-24T04:39:06.558Z,90.38
2022-12-24T04:41:36.248Z,90.38
2022-12-24T04:44:05.868Z,90.19
2022-12-24T04:46:35.991Z,90.47
2022-12-24T04:49:06.248Z,90.58
2022-12-24T04:51:36.006Z,90.59
2022-12-24T04:54:05.241Z,90.72
2022-12-24T04:56:34.803Z,90.62
2022-12-24T04:59:04.316Z,90.90
2022-12-24T05:01:34.400Z,90.65
2022-12-24T05:04:03.944Z,91.30
2022-12-24T05:06:33.804Z,90.94
2022-12-24T05:09:03.044Z,90.99
2022-12-24T05:11:32.232Z,90.93
2022-12-24T05:14:01.567Z,90.90
2022-12-24T05:16:30.816Z,90.98
2022-12-24T05:19:00.323Z,90.65
2022-12-24T05:21:29.539Z,90.88
2022-12-24T05:24:16.834Z,90.72
2022-12-24T05:26:51.248Z,90.86
2022-12-24T05:29:20.441Z,91.04
2022-12-24T05:31:50.368Z,91.07
2022-12-24T05:34:19.651Z,91.31
2022-12-24T05:36:49.007Z,90.92
2022-12-24T05:39:19.761Z,90.64
2022-12-24T05:41:49.403Z,90.85
2022-12-24T05:44:18.681Z,90.34
2022-12-24T05:46:48.369Z,90.35
2022-12-24T05:49:17.852Z,90.17
2022-12-24T05:51:47.064Z,90.12
2022-12-24T05:54:16.332Z,90.15
2022-12-24T05:56:45.579Z,90.53
2022-12-24T05:59:14.777Z,90.52
2022-12-24T06:01:46.184Z,90.41
2022-12-24T06:04:15.659Z,90.20
2022-12-24T06:06:45.307Z,90.08
2022-12-24T06:09:15.329Z,89.56
2022-12-24T06:11:45.106Z,89.92
2022-12-24T06:14:14.305Z,89.97
2022-12-24T06:16:43.538Z,89.79
2022-12-24T06:19:12.738Z,89.36
2022-12-24T06:21:42.326Z,89.42
2022-12-24T06:24:12.042Z,89.49
2022-12-24T06:26:41.393Z,89.52
2022-12-24T06:29:11.561Z,89.99
2022-12-24T06:31:41.086Z,90.33
2022-12-24T06:34:10.482Z,90.46
2022-12-24T06:36:39.699Z,90.77
2022-12-24T06:39:08.929Z,90.98
2022-12-24T06:41:38.781Z,90.97
2022-12-24T06:44:08.033Z,90.92
2022-12-24T06:46:37.555Z,91.39
2022-12-24T06:49:06.919Z,91.29
2022-12-24T06:51:36.150Z,91.55
2022-12-24T06:54:05.867Z,91.59
2022-12-24T06:56:35.493Z,91.75
2022-12-24T06:59:05.713Z,91.86
2022-12-24T07:01:35.236Z,92.17
2022-12-24T07:04:04.698Z,92.33
2022-12-24T07:06:34.073Z,92.46
2022-12-24T07:09:03.351Z,92.43
2022-12-24T07:11:32.912Z,92.39
2022-12-24T07:14:02.099Z,92.18
2022-12-24T07:16:31.640Z,92.57
2022-12-24T07:19:01.046Z,92.71
2022-12-24T07:21:30.298Z,92.76
2022-12-24T07:23:59.496Z,92.98
2022-12-24T07:26:28.800Z,92.78
2022-12-24T07:28:58.568Z,92.70
2022-12-24T07:31:27.863Z,92.48
2022-12-24T07:33:57.144Z,92.47
2022-12-24T07:36:28.190Z,92.59
2022-12-24T07:38:57.494Z,92.59
2022-12-24T07:41:27.383Z,92.54
2022-12-24T07:43:56.679Z,92.43
2022-12-24T07:46:25.957Z,91.92
2022-12-24T07:48:55.708Z,91.38
2022-12-24T07:51:25.044Z,91.59
2022-12-24T07:53:54.618Z,91.65
2022-12-24T07:56:25.927Z,91.71
2022-12-24T07:58:55.527Z,91.17
2022-12-24T08:01:24.824Z,91.26
2022-12-24T08:03:55.122Z,91.37
2022-12-24T08:06:24.744Z,91.43
2022-12-24T08:08:53.992Z,91.32
2022-12-24T08:11:23.300Z,91.28
2022-12-24T08:13:52.536Z,91.48
2022-12-24T08:16:21.957Z,90.86
2022-12-24T08:18:51.237Z,90.69
2022-12-24T08:21:20.481Z,90.72
2022-12-24T08:23:49.691Z,91.09
2022-12-24T08:26:19.077Z,90.52
2022-12-24T08:28:48.415Z,90.50
2022-12-24T08:31:17.914Z,90.58
2022-12-24T08:33:47.341Z,91.23
2022-12-24T08:36:16.902Z,91.36
2022-12-24T08:38:46.533Z,91.20
2022-12-24T08:41:16.118Z,91.04
2022-12-24T08:43:45.474Z,90.91
2022-12-24T08:46:15.130Z,90.60
2022-12-24T08:48:44.381Z,91.16
2022-12-24T08:51:13.941Z,91.31
2022-12-24T08:53:43.240Z,91.16
2022-12-24T08:56:13.165Z,91.13
2022-12-24T08:58:43.033Z,90.76
2022-12-24T09:01:18.087Z,90.64
2022-12-24T09:03:48.380Z,90.67
2022-12-24T09:06:17.864Z,90.08
2022-12-24T09:08:47.180Z,89.69
2022-12-24T09:11:18.225Z,89.82
2022-12-24T09:13:47.579Z,89.65
2022-12-24T09:16:16.866Z,89.28
2022-12-24T09:18:46.243Z,88.87
2022-12-24T09:21:18.629Z,88.47
2022-12-24T09:23:49.663Z,88.26
2022-12-24T09:26:24.484Z,88.31
2022-12-24T09:28:54.842Z,88.43
2022-12-24T09:31:24.740Z,88.35
2022-12-24T09:33:54.801Z,88.22
2022-12-24T09:36:24.289Z,88.51
2022-12-24T09:38:53.843Z,88.57
2022-12-24T09:41:47.708Z,88.48
2022-12-24T09:44:29.261Z,88.48
2022-12-24T09:47:00.621Z,88.74
2022-12-24T09:49:37.103Z,88.48
2022-12-24T09:52:09.312Z,88.09
2022-12-24T09:54:49.701Z,87.70
2022-12-24T09:57:33.673Z,87.58
2022-12-24T10:00:03.737Z,87.73
2022-12-24T10:02:35.305Z,87.34
2022-12-24T10:05:05.233Z,87.26
2022-12-24T10:07:50.556Z,87.13
2022-12-24T10:10:26.478Z,86.41
2022-12-24T10:13:11.474Z,85.63
2022-12-24T10:16:03.790Z,84.96
2022-12-24T10:18:49.327Z,85.32
2022-12-24T10:21:23.075Z,84.34
2022-12-24T10:24:10.964Z,84.89
2022-12-24T10:26:43.709Z,85.14
2022-12-24T10:29:31.487Z,84.42
2022-12-24T10:32:14.908Z,84.08
2022-12-24T10:35:06.961Z,84.94
2022-12-24T10:37:36.609Z,85.68
2022-12-24T10:40:06.832Z,86.01
2022-12-24T10:42:50.147Z,86.01
2022-12-24T10:45:18.803Z,85.71
2022-12-24T10:47:50.767Z,86.11
2022-12-24T10:50:35.738Z,85.82
2022-12-24T10:53:17.819Z,83.46
2022-12-24T10:55:49.463Z,83.17
2022-12-24T10:58:20.641Z,83.92
2022-12-24T11:00:53.953Z,84.35
2022-12-24T11:03:27.012Z,84.00
2022-12-24T11:06:08.463Z,84.63
2022-12-24T11:08:40.183Z,85.36
2022-12-24T11:11:12.319Z,84.20
2022-12-24T11:13:54.131Z,84.59
2022-12-24T11:16:31.970Z,85.35
2022-12-24T11:19:06.714Z,85.09
2022-12-24T11:21:38.892Z,85.11
2022-12-24T11:24:20.691Z,85.50
2022-12-24T11:26:50.027Z,85.05
2022-12-24T11:29:25.110Z,84.64
2022-12-24T11:32:06.352Z,84.63
2022-12-24T11:34:35.686Z,84.73
2022-12-24T11:37:15.108Z,84.71
2022-12-24T11:39:59.726Z,85.06
2022-12-24T11:42:34.800Z,84.58
2022-12-24T11:45:07.521Z,85.00
2022-12-24T11:47:40.437Z,84.73
2022-12-24T11:50:24.528Z,85.02
2022-12-24T11:53:08.858Z,85.20
2022-12-24T11:55:53.304Z,85.50
2022-12-24T11:58:45.691Z,85.47
2022-12-24T12:01:21.789Z,85.31
2022-12-24T12:03:54.689Z,85.12
2022-12-24T12:06:39.234Z,84.80
2022-12-24T12:09:14.551Z,84.77
2022-12-24T12:11:45.808Z,84.22
2022-12-24T12:14:18.549Z,84.99
2022-12-24T12:17:06.059Z,85.16
2022-12-24T12:19:38.611Z,85.10
2022-12-24T12:22:11.365Z,84.59
2022-12-24T12:24:44.036Z,84.50
2022-12-24T12:27:19.952Z,84.73
2022-12-24T12:29:55.656Z,84.89
2022-12-24T12:32:28.106Z,84.55
2022-12-24T12:35:02.154Z,85.08
2022-12-24T12:37:42.637Z,85.28
2022-12-24T12:40:17.404Z,85.62
2022-12-24T12:42:55.023Z,85.08
2022-12-24T12:45:47.231Z,84.92
2022-12-24T12:48:37.410Z,84.64
2022-12-24T12:51:25.359Z,85.24
2022-12-24T12:54:06.792Z,85.47
2022-12-24T12:56:37.576Z,85.47
2022-12-24T12:59:28.542Z,85.84
2022-12-24T13:02:17.661Z,85.91
2022-12-24T13:05:19.227Z,85.49
2022-12-24T13:08:14.523Z,84.91
2022-12-24T13:10:55.866Z,84.72
2022-12-24T13:13:54.030Z,84.78
2022-12-24T13:16:41.715Z,84.62
2022-12-24T13:19:23.257Z,85.12
2022-12-24T13:21:55.041Z,85.04
2022-12-24T13:24:26.286Z,85.47
2022-12-24T13:27:10.793Z,85.56
2022-12-24T13:30:09.735Z,85.97
2022-12-24T13:32:53.472Z,86.28
2022-12-24T13:35:26.120Z,86.42
2022-12-24T13:37:54.694Z,86.48
2022-12-24T13:40:26.273Z,86.02
2022-12-24T13:43:05.690Z,86.46
2022-12-24T13:45:41.192Z,86.14
2022-12-24T13:48:14.084Z,85.38
2022-12-24T13:50:54.904Z,85.36
2022-12-24T13:53:33.638Z,85.67
2022-12-24T13:56:17.914Z,86.02
2022-12-24T13:58:52.149Z,86.39
2022-12-24T14:01:23.111Z,86.64
2022-12-24T14:03:55.074Z,86.75
2022-12-24T14:06:32.411Z,86.61
2022-12-24T14:09:15.631Z,86.77
2022-12-24T14:11:56.501Z,86.86
2022-12-24T14:14:31.624Z,87.03
2022-12-24T14:17:03.495Z,87.22
2022-12-24T14:19:53.875Z,87.29
2022-12-24T14:22:37.934Z,87.24
2022-12-24T14:25:19.912Z,87.42
2022-12-24T14:27:55.179Z,87.39
2022-12-24T14:30:26.788Z,87.47
2022-12-24T14:32:56.508Z,87.40
2022-12-24T14:35:31.845Z,87.41
2022-12-24T14:38:06.389Z,87.95
2022-12-24T14:40:38.996Z,88.13
2022-12-24T14:43:18.756Z,88.55
2022-12-24T14:46:28.230Z,88.87
2022-12-24T14:48:59.122Z,88.86
2022-12-24T14:51:40.613Z,89.20
2022-12-24T14:54:16.422Z,89.18
2022-12-24T14:56:45.847Z,89.36
2022-12-24T14:59:21.000Z,89.46
2022-12-24T15:23:52.674Z,92.16
2022-12-24T15:26:35.326Z,92.05
2022-12-24T15:29:07.742Z,92.20
2022-12-24T15:31:37.274Z,92.07
2022-12-24T15:34:06.547Z,91.69
2022-12-24T15:36:37.108Z,91.83
2022-12-24T15:39:08.598Z,91.78
2022-12-24T15:42:01.114Z,91.65
2022-12-24T15:44:35.124Z,91.80
2022-12-24T15:47:07.451Z,91.93
2022-12-24T15:49:37.372Z,91.96
2022-12-24T15:52:09.757Z,92.07
2022-12-24T15:54:40.992Z,92.28
2022-12-24T15:57:17.064Z,92.17
2022-12-24T15:59:49.761Z,92.32
2022-12-24T16:02:39.029Z,92.08
2022-12-24T16:05:35.881Z,92.02
2022-12-24T16:08:17.178Z,91.81
2022-12-24T16:10:52.401Z,91.68
2022-12-24T16:13:24.319Z,91.74
2022-12-24T16:16:03.531Z,91.96
2022-12-24T16:18:35.413Z,92.16
2022-12-24T16:21:05.951Z,92.09
2022-12-24T16:23:49.605Z,92.17
2022-12-24T16:26:19.536Z,92.27
2022-12-24T16:28:49.451Z,92.29
2022-12-24T16:31:30.579Z,91.98
2022-12-24T16:34:01.621Z,91.82
2022-12-24T16:36:32.303Z,91.97
2022-12-24T16:39:19.848Z,92.05
2022-12-24T16:42:07.333Z,92.37
2022-12-24T16:44:37.424Z,92.70
2022-12-24T16:47:11.038Z,92.74
2022-12-24T16:49:40.449Z,92.94
2022-12-24T16:52:15.644Z,93.06
2022-12-24T16:54:44.882Z,93.02
2022-12-24T16:57:14.593Z,93.09
2022-12-24T16:59:43.988Z,93.51
2022-12-24T17:02:16.149Z,93.50
2022-12-24T17:04:45.647Z,93.67
2022-12-24T17:07:16.992Z,93.60
2022-12-24T17:09:46.349Z,93.57
2022-12-24T17:12:16.423Z,93.59
2022-12-24T17:14:45.658Z,93.60
2022-12-24T17:17:23.564Z,93.77
2022-12-24T17:19:52.860Z,93.65
2022-12-24T17:22:22.364Z,93.88
2022-12-24T17:24:51.742Z,93.85
2022-12-24T17:27:21.244Z,94.16
2022-12-24T17:29:51.015Z,94.21
2022-12-24T17:32:20.442Z,94.22
2022-12-24T17:34:49.909Z,94.09
2022-12-24T17:37:19.436Z,94.11
2022-12-24T17:39:48.783Z,94.22
2022-12-24T17:42:18.239Z,94.22
2022-12-24T17:44:47.860Z,94.16
2022-12-24T17:47:17.185Z,94.07
2022-12-24T17:49:46.727Z,93.94
2022-12-24T17:52:16.041Z,93.84
2022-12-24T17:54:45.381Z,93.92
2022-12-24T17:57:14.986Z,94.05
2022-12-24T17:59:44.195Z,94.29
2022-12-24T18:02:13.935Z,94.39
2022-12-24T18:04:43.637Z,94.41
2022-12-24T18:07:12.912Z,94.34
2022-12-24T18:09:46.434Z,94.30
2022-12-24T18:12:15.688Z,94.32
2022-12-24T18:14:44.986Z,94.24
2022-12-24T18:17:14.495Z,94.21
2022-12-24T18:19:44.105Z,94.34
2022-12-24T18:22:14.062Z,94.36
2022-12-24T18:24:43.824Z,94.61
2022-12-24T18:27:14.563Z,94.66
2022-12-24T18:29:44.180Z,94.56
2022-12-24T18:32:15.093Z,94.90
2022-12-24T18:34:44.812Z,94.89
2022-12-24T18:37:14.444Z,95.05
2022-12-24T18:39:44.938Z,95.38
2022-12-24T18:42:14.919Z,95.35
2022-12-24T18:44:46.251Z,95.52
2022-12-24T18:47:15.692Z,95.41
2022-12-24T18:49:45.260Z,95.38
2022-12-24T18:52:20.789Z,95.35
2022-12-24T18:54:50.485Z,95.46
2022-12-24T18:57:20.011Z,95.41
2022-12-24T18:59:49.571Z,95.34
2022-12-24T19:02:18.887Z,95.41
2022-12-24T19:04:48.206Z,95.39
2022-12-24T19:07:17.529Z,95.15
2022-12-24T19:09:48.603Z,95.15
2022-12-24T19:12:18.074Z,95.10
2022-12-24T19:14:47.682Z,94.98
2022-12-24T19:17:17.202Z,94.90
2022-12-24T19:19:46.465Z,94.98
2022-12-24T19:22:16.002Z,95.01
2022-12-24T19:24:45.531Z,95.00
2022-12-24T19:27:15.582Z,94.87
2022-12-24T19:29:45.290Z,94.74
2022-12-24T19:32:14.597Z,94.78
2022-12-24T19:34:43.999Z,94.65
2022-12-24T19:37:13.594Z,94.63
2022-12-24T19:39:43.354Z,94.72
2022-12-24T19:42:12.788Z,94.61
2022-12-24T19:44:42.393Z,94.70
2022-12-24T19:47:11.948Z,94.75
2022-12-24T19:49:41.633Z,94.90
2022-12-24T19:52:10.839Z,95.05
2022-12-24T19:54:40.339Z,95.12
2022-12-24T19:57:10.220Z,95.31
2022-12-24T19:59:39.965Z,95.29
2022-12-24T20:02:11.568Z,95.32
2022-12-24T20:04:41.462Z,95.51
2022-12-24T20:07:10.830Z,95.61
2022-12-24T20:09:40.800Z,95.64
2022-12-24T20:12:10.334Z,95.55
2022-12-24T20:14:39.941Z,95.55
2022-12-24T20:17:09.397Z,95.62
2022-12-24T20:19:39.238Z,95.61
2022-12-24T20:22:10.685Z,95.49
2022-12-24T20:24:40.556Z,95.31
2022-12-24T20:27:10.121Z,94.99
2022-12-24T20:29:39.968Z,94.89
2022-12-24T20:32:09.912Z,94.87
2022-12-24T20:34:39.521Z,94.75
2022-12-24T20:37:08.905Z,94.74
2022-12-24T20:39:38.418Z,94.81
2022-12-24T20:42:07.736Z,94.89
2022-12-24T20:44:37.284Z,94.81
2022-12-24T20:47:06.723Z,94.67
2022-12-24T20:49:36.177Z,94.54
2022-12-24T20:52:05.745Z,94.46
2022-12-24T20:54:35.614Z,94.45
2022-12-24T20:57:05.402Z,94.41
2022-12-24T20:59:34.968Z,94.52
2022-12-24T21:02:04.600Z,94.54
2022-12-24T21:04:34.011Z,94.54
2022-12-24T21:07:03.725Z,94.59
2022-12-24T21:09:33.442Z,94.58
2022-12-24T21:12:21.362Z,94.64
2022-12-24T21:14:50.734Z,94.76
2022-12-24T21:17:20.519Z,94.90
2022-12-24T21:19:49.938Z,94.97
2022-12-24T21:22:20.107Z,95.02
2022-12-24T21:24:49.336Z,95.04
2022-12-24T21:27:18.799Z,95.18
2022-12-24T21:29:48.222Z,95.21
2022-12-24T21:32:17.925Z,95.20
2022-12-24T21:34:47.414Z,95.32
2022-12-24T21:37:17.548Z,95.36
2022-12-24T21:39:47.999Z,95.40
2022-12-24T21:42:17.399Z,95.57
2022-12-24T21:44:46.865Z,95.69
2022-12-24T21:47:16.460Z,95.69
2022-12-24T21:50:03.361Z,95.82
2022-12-24T21:52:33.337Z,95.93
2022-12-24T21:55:02.674Z,96.09
2022-12-24T21:57:51.598Z,96.21
2022-12-24T22:00:25.755Z,96.26
2022-12-24T22:02:57.699Z,96.46
2022-12-24T22:05:27.879Z,96.52
2022-12-24T22:08:15.376Z,96.64
2022-12-24T22:11:02.932Z,96.75
2022-12-24T22:13:33.464Z,96.58
2022-12-24T22:16:02.668Z,96.65
2022-12-24T22:18:32.287Z,96.67
2022-12-24T22:21:03.239Z,96.87
2022-12-24T22:23:37.068Z,97.01
2022-12-24T22:26:12.260Z,96.98
2022-12-24T22:28:43.184Z,96.99
2022-12-24T22:31:20.200Z,97.02
2022-12-24T22:33:49.758Z,97.08
2022-12-24T22:36:21.463Z,97.07
2022-12-24T22:38:52.759Z,97.02
2022-12-24T22:41:22.582Z,96.97
2022-12-24T22:43:51.842Z,96.90
2022-12-24T22:46:21.460Z,96.73
2022-12-24T22:48:52.017Z,96.58
2022-12-24T22:51:22.431Z,96.49
2022-12-24T22:53:51.729Z,96.44
2022-12-24T22:56:23.086Z,96.41
2022-12-24T22:58:55.844Z,96.34
2022-12-24T23:01:39.315Z,96.32
2022-12-24T23:04:09.953Z,96.31
2022-12-24T23:06:39.779Z,96.23
2022-12-24T23:09:10.568Z,96.20
2022-12-24T23:11:41.448Z,96.04
2022-12-24T23:14:36.956Z,96.01
2022-12-24T23:17:06.698Z,95.96
2022-12-24T23:19:36.779Z,95.88
2022-12-24T23:22:06.702Z,95.81
2022-12-24T23:24:38.244Z,95.74
2022-12-24T23:27:07.820Z,95.56
2022-12-24T23:29:37.397Z,95.64
2022-12-24T23:32:06.650Z,95.78
2022-12-24T23:34:36.398Z,95.67
2022-12-24T23:37:05.692Z,95.57
2022-12-24T23:39:35.030Z,95.60
2022-12-24T23:42:04.298Z,95.60
2022-12-24T23:44:33.926Z,95.60
2022-12-24T23:47:03.631Z,95.55
2022-12-24T23:49:33.018Z,95.63
2022-12-24T23:52:02.721Z,95.58
2022-12-24T23:54:32.033Z,95.64
2022-12-24T23:57:01.261Z,95.59
2022-12-24T23:59:30.485Z,95.56
